createdAt,value
2018-09-27T00:02:15.279Z,1.50
2018-09-27T00:07:18.638Z,1.50
2018-09-27T00:12:21.980Z,1.43
2018-09-27T00:17:25.383Z,1.30
2018-09-27T00:22:28.739Z,1.30
2018-09-27T00:27:32.074Z,1.30
2018-09-27T00:32:35.397Z,1.40
2018-09-27T00:37:38.731Z,1.33
2018-09-27T00:42:42.037Z,1.30
2018-09-27T00:47:45.397Z,1.20
2018-09-27T00:52:48.763Z,1.00
2018-09-27T00:57:52.122Z,1.30
2018-09-27T01:02:55.566Z,1.10
2018-09-27T01:07:58.928Z,1.10
2018-09-27T01:13:02.555Z,1.30
2018-09-27T01:18:05.961Z,1.37
2018-09-27T01:23:09.269Z,1.20
2018-09-27T01:28:12.570Z,1.43
2018-09-27T01:33:15.866Z,1.20
2018-09-27T01:38:19.222Z,1.50
2018-09-27T01:43:22.514Z,1.33
2018-09-27T01:48:25.818Z,1.13
2018-09-27T01:53:29.155Z,1.27
2018-09-27T01:58:32.515Z,1.10
2018-09-27T02:03:35.848Z,0.90
2018-09-27T02:08:39.209Z,1.10
2018-09-27T02:13:42.489Z,1.10
2018-09-27T02:18:45.791Z,1.10
2018-09-27T02:23:49.132Z,1.40
2018-09-27T02:28:52.450Z,1.07
2018-09-27T02:33:55.723Z,1.10
2018-09-27T02:38:59.084Z,1.37
2018-09-27T02:44:02.378Z,1.00
2018-09-27T02:49:05.648Z,1.40
2018-09-27T02:54:09.030Z,1.07
2018-09-27T02:59:12.366Z,1.00
2018-09-27T03:04:15.728Z,1.10
2018-09-27T03:09:19.045Z,1.20
2018-09-27T03:14:22.313Z,1.20
2018-09-27T03:19:25.669Z,1.07
2018-09-27T03:24:28.995Z,1.00
2018-09-27T03:29:32.314Z,1.17
2018-09-27T03:34:35.647Z,1.20
2018-09-27T03:39:38.926Z,1.40
2018-09-27T03:44:42.260Z,1.00
2018-09-27T03:49:45.570Z,1.17
2018-09-27T03:54:48.856Z,1.03
2018-09-27T03:59:52.176Z,1.03
2018-09-27T04:04:55.460Z,1.17
2018-09-27T04:09:58.825Z,1.40
2018-09-27T04:15:02.152Z,1.07
2018-09-27T04:20:06.601Z,1.35
2018-09-27T04:25:09.891Z,1.17
2018-09-27T04:30:13.194Z,1.10
2018-09-27T04:35:16.473Z,1.10
2018-09-27T04:40:19.804Z,1.20
2018-09-27T04:45:23.118Z,1.30
2018-09-27T04:50:26.408Z,1.27
2018-09-27T04:55:29.856Z,1.10
2018-09-27T05:00:33.563Z,1.00
2018-09-27T05:05:36.869Z,1.57
2018-09-27T05:10:40.234Z,1.20
2018-09-27T05:15:43.659Z,1.57
2018-09-27T05:20:46.927Z,1.57
2018-09-27T05:25:50.229Z,1.33
2018-09-27T05:30:53.548Z,1.33
2018-09-27T05:35:57.698Z,1.90
2018-09-27T05:41:01.085Z,1.80
2018-09-27T05:46:04.576Z,1.70
2018-09-27T05:51:08.525Z,1.63
2018-09-27T05:56:12.358Z,1.50
2018-09-27T06:01:15.704Z,1.47
2018-09-27T06:06:19.138Z,2.87
2018-09-27T06:11:22.600Z,1.40
2018-09-27T06:16:25.917Z,1.23
2018-09-27T06:21:29.223Z,1.40
2018-09-27T06:26:32.509Z,1.33
2018-09-27T06:31:43.045Z,1.50
2018-09-27T06:36:46.359Z,1.77
2018-09-27T06:41:49.646Z,1.30
2018-09-27T06:46:52.960Z,1.50
2018-09-27T06:51:56.264Z,1.70
2018-09-27T06:56:59.542Z,1.40
2018-09-27T07:02:02.912Z,1.83
2018-09-27T07:07:06.414Z,1.87
2018-09-27T07:12:09.793Z,1.70
2018-09-27T07:17:13.008Z,1.60
2018-09-27T07:22:16.305Z,1.47
2018-09-27T07:27:19.627Z,1.80
2018-09-27T07:32:22.921Z,2.33
2018-09-27T07:37:26.217Z,2.03
2018-09-27T07:42:29.508Z,2.20
2018-09-27T07:47:32.799Z,2.23
2018-09-27T07:52:36.100Z,2.20
2018-09-27T07:57:39.481Z,2.60
2018-09-27T08:02:42.847Z,2.42
2018-09-27T08:07:46.095Z,2.20
2018-09-27T08:12:49.369Z,2.55
2018-09-27T08:17:52.637Z,2.72
2018-09-27T08:22:55.954Z,2.95
2018-09-27T08:27:59.237Z,2.50
2018-09-27T08:33:02.569Z,1.95
2018-09-27T08:38:05.895Z,3.30
2018-09-27T08:43:09.293Z,2.90
2018-09-27T08:48:12.689Z,3.40
2018-09-27T08:53:16.303Z,3.42
2018-09-27T08:58:20.168Z,3.70
2018-09-27T09:03:23.748Z,3.00
2018-09-27T09:08:27.040Z,2.90
2018-09-27T09:13:30.572Z,3.52
2018-09-27T09:18:34.001Z,3.10
2018-09-27T09:23:37.690Z,3.90
2018-09-27T09:28:41.044Z,3.02
2018-09-27T09:33:44.407Z,2.85
2018-09-27T09:38:47.618Z,3.65
2018-09-27T09:43:50.941Z,3.45
2018-09-27T09:48:54.315Z,3.47
2018-09-27T09:53:57.850Z,3.00
2018-09-27T09:59:01.326Z,2.85
2018-09-27T10:04:04.669Z,3.20
2018-09-27T10:09:08.818Z,3.37
2018-09-27T10:14:12.182Z,3.12
2018-09-27T10:19:15.528Z,3.30
2018-09-27T10:24:18.905Z,2.37
2018-09-27T10:29:22.318Z,2.42
2018-09-27T10:34:25.724Z,3.58
2018-09-27T10:39:29.161Z,3.10
2018-09-27T10:44:33.367Z,2.50
2018-09-27T10:49:36.765Z,3.25
2018-09-27T10:54:40.127Z,3.12
2018-09-27T10:59:43.884Z,2.47
2018-09-27T11:04:47.599Z,3.58
2018-09-27T11:09:50.965Z,2.77
2018-09-27T11:14:54.306Z,3.27
2018-09-27T11:19:57.790Z,3.02
2018-09-27T11:25:01.860Z,2.60
2018-09-27T11:30:10.819Z,2.47
2018-09-27T11:35:14.508Z,2.57
2018-09-27T11:40:17.890Z,2.60
2018-09-27T11:45:21.223Z,2.70
2018-09-27T11:50:24.566Z,2.10
2018-09-27T11:55:27.901Z,1.40
2018-09-27T12:00:31.323Z,1.80
2018-09-27T12:10:38.070Z,1.57
2018-09-27T12:15:47.225Z,1.90
2018-09-27T12:20:50.629Z,1.85
2018-09-27T12:25:53.925Z,1.90
2018-09-27T12:30:57.305Z,1.82
2018-09-27T12:36:00.650Z,1.65
2018-09-27T12:41:04.826Z,1.65
2018-09-27T12:46:08.299Z,1.40
2018-09-27T12:51:11.635Z,1.52
2018-09-27T12:56:15.014Z,1.50
2018-09-27T13:01:18.364Z,1.40
2018-09-27T13:06:21.672Z,1.22
2018-09-27T13:11:24.968Z,1.50
2018-09-27T13:16:28.250Z,1.57
2018-09-27T13:21:31.602Z,1.27
2018-09-27T13:26:34.900Z,1.50
2018-09-27T13:31:38.291Z,1.15
2018-09-27T13:36:41.592Z,1.03
2018-09-27T13:41:44.890Z,0.98
2018-09-27T13:46:48.202Z,1.00
2018-09-27T13:51:51.522Z,1.20
2018-09-27T13:56:54.865Z,1.27
2018-09-27T14:01:58.156Z,1.00
2018-09-27T14:07:01.542Z,0.90
2018-09-27T14:12:04.940Z,1.20
2018-09-27T14:17:08.220Z,1.00
2018-09-27T14:22:11.496Z,0.70
2018-09-27T14:27:14.780Z,0.70
2018-09-27T15:06:04.556Z,0.78
2018-09-27T15:11:07.912Z,0.70
2018-09-27T15:16:11.247Z,0.72
2018-09-27T15:21:14.553Z,0.60
2018-09-27T15:26:18.396Z,0.93
2018-09-27T15:31:21.753Z,0.70
2018-09-27T15:36:25.097Z,0.60
2018-09-27T15:41:28.528Z,0.60
2018-09-27T15:46:31.858Z,0.65
2018-09-27T15:51:35.169Z,0.57
2018-09-27T15:56:38.464Z,0.80
2018-09-27T16:01:41.753Z,0.60
2018-09-27T16:06:45.058Z,0.65
2018-09-27T16:11:48.395Z,0.72
2018-09-27T16:16:51.672Z,0.82
2018-09-27T16:21:54.956Z,0.60
2018-09-27T16:26:58.287Z,0.70
2018-09-27T16:32:01.564Z,0.90
2018-09-27T16:37:04.882Z,1.12
2018-09-27T16:42:08.211Z,1.25
2018-09-27T16:47:11.517Z,1.07
2018-09-27T16:52:14.825Z,0.80
2018-09-27T16:57:18.208Z,1.00
2018-09-27T17:02:21.502Z,1.10
2018-09-27T17:07:24.805Z,0.98
2018-09-27T17:12:28.083Z,1.10
2018-09-27T17:17:31.409Z,1.50
2018-09-27T17:22:34.763Z,1.60
2018-09-27T17:27:38.076Z,1.85
2018-09-27T17:32:44.948Z,2.15
2018-09-27T17:37:52.045Z,1.65
2018-09-27T17:42:55.419Z,1.80
2018-09-27T17:47:58.754Z,1.52
2018-09-27T17:53:02.071Z,1.77
2018-09-27T17:58:05.457Z,2.00
2018-09-27T18:03:08.757Z,1.82
2018-09-27T18:08:12.118Z,1.90
2018-09-27T18:13:15.480Z,1.92
2018-09-27T18:18:18.817Z,1.77
2018-09-27T18:23:22.148Z,1.65
2018-09-27T18:28:25.446Z,4.15
2018-09-27T18:33:28.746Z,1.60
2018-09-27T18:38:32.059Z,1.50
2018-09-27T18:43:35.396Z,1.15
2018-09-27T18:48:38.679Z,1.17
2018-09-27T18:53:41.947Z,1.10
2018-09-27T18:58:45.231Z,1.20
2018-09-27T19:03:48.551Z,1.15
2018-09-27T19:08:51.921Z,1.10
2018-09-27T19:13:55.205Z,1.00
2018-09-27T19:18:58.591Z,1.15
2018-09-27T19:24:01.926Z,1.07
2018-09-27T19:29:05.281Z,1.10
2018-09-27T19:34:08.584Z,1.10
2018-09-27T19:39:19.264Z,1.15
2018-09-27T19:44:22.556Z,1.10
2018-09-27T19:49:25.912Z,1.40
2018-09-27T19:54:29.477Z,1.60
2018-09-27T19:59:32.835Z,1.65
2018-09-27T20:04:36.441Z,1.40
2018-09-27T20:09:39.727Z,1.30
2018-09-27T20:14:43.036Z,1.75
2018-09-27T20:19:46.363Z,1.60
2018-09-27T20:24:49.679Z,1.70
2018-09-27T20:29:52.976Z,1.67
2018-09-27T20:34:56.260Z,1.47
2018-09-27T20:39:59.648Z,1.35
2018-09-27T20:45:03.035Z,1.57
2018-09-27T20:50:06.838Z,1.94
2018-09-27T20:55:10.108Z,2.00
2018-09-27T21:00:13.416Z,1.20
2018-09-27T21:05:16.713Z,1.43
2018-09-27T21:10:20.196Z,1.30
2018-09-27T21:15:23.493Z,1.40
2018-09-27T21:20:26.773Z,1.35
2018-09-27T21:25:30.083Z,1.50
2018-09-27T21:30:33.404Z,1.40
2018-09-27T21:35:36.705Z,1.37
2018-09-27T21:40:40.005Z,1.42
2018-09-27T21:45:43.284Z,1.42
2018-09-27T21:50:46.628Z,1.50
2018-09-27T21:55:49.933Z,1.50
2018-09-27T22:00:53.636Z,1.30
2018-09-27T22:05:56.963Z,1.50
2018-09-27T22:11:00.280Z,1.72
2018-09-27T22:16:03.579Z,1.22
2018-09-27T22:21:06.974Z,1.32
2018-09-27T22:26:10.273Z,1.10
2018-09-27T22:31:13.593Z,1.35
2018-09-27T22:36:16.883Z,1.60
2018-09-27T22:41:20.221Z,1.73
2018-09-27T22:46:23.551Z,1.55
2018-09-27T22:51:26.876Z,1.52
2018-09-27T22:56:30.217Z,1.60
2018-09-27T23:01:33.517Z,1.70
2018-09-27T23:06:36.836Z,1.70
2018-09-27T23:11:40.163Z,1.27
2018-09-27T23:16:43.506Z,1.20
2018-09-27T23:21:46.784Z,1.50
2018-09-27T23:26:50.120Z,1.47
2018-09-27T23:31:53.404Z,1.20
2018-09-27T23:36:56.680Z,1.50
2018-09-27T23:42:00.004Z,1.30
2018-09-27T23:47:03.272Z,1.10
2018-09-27T23:52:06.586Z,1.47
2018-09-27T23:57:09.861Z,1.60
